sensor_id;sensor_type;location;lat;lon;timestamp;pressure;altitude;pressure_sealevel;temperature;humidity
11114;BME280;5610;52.154;9.198;2023-11-21T00:01:54;100133.91;;;7.92;100.00
11114;BME280;5610;52.154;9.198;2023-11-21T00:04:39;100139.84;;;7.95;100.00
11114;BME280;5610;52.154;9.198;2023-11-21T00:07:25;100141.31;;;8.01;100.00
11114;BME280;5610;52.154;9.198;2023-11-21T00:10:12;100135.84;;;8.04;100.00
11114;BME280;5610;52.154;9.198;2023-11-21T00:12:59;100133.69;;;8.11;100.00
11114;BME280;5610;52.154;9.198;2023-11-21T00:15:46;100129.97;;;8.13;100.00
11114;BME280;5610;52.154;9.198;2023-11-21T00:18:31;100137.47;;;8.21;100.00
11114;BME280;5610;52.154;9.198;2023-11-21T00:21:17;100137.28;;;8.24;100.00
11114;BME280;5610;52.154;9.198;2023-11-21T00:24:04;100136.16;;;8.28;100.00
11114;BME280;5610;52.154;9.198;2023-11-21T00:26:49;100137.59;;;8.34;100.00
11114;BME280;5610;52.154;9.198;2023-11-21T00:29:34;100141.88;;;8.36;100.00
11114;BME280;5610;52.154;9.198;2023-11-21T00:32:20;100141.53;;;8.42;100.00
11114;BME280;5610;52.154;9.198;2023-11-21T00:35:05;100150.16;;;8.46;100.00
11114;BME280;5610;52.154;9.198;2023-11-21T00:37:51;100141.31;;;8.45;100.00
11114;BME280;5610;52.154;9.198;2023-11-21T00:40:37;100145.78;;;8.45;100.00
11114;BME280;5610;52.154;9.198;2023-11-21T00:43:23;100149.22;;;8.47;100.00
11114;BME280;5610;52.154;9.198;2023-11-21T00:46:08;100148.16;;;8.49;100.00
11114;BME280;5610;52.154;9.198;2023-11-21T00:48:53;100149.72;;;8.53;100.00
11114;BME280;5610;52.154;9.198;2023-11-21T00:51:38;100155.56;;;8.59;100.00
11114;BME280;5610;52.154;9.198;2023-11-21T00:54:23;100160.59;;;8.63;100.00
11114;BME280;5610;52.154;9.198;2023-11-21T00:57:10;100164.13;;;8.64;100.00
11114;BME280;5610;52.154;9.198;2023-11-21T00:59:55;100153.13;;;8.70;100.00
11114;BME280;5610;52.154;9.198;2023-11-21T01:02:40;100167.06;;;8.73;100.00
11114;BME280;5610;52.154;9.198;2023-11-21T01:05:26;100172.84;;;8.80;100.00
11114;BME280;5610;52.154;9.198;2023-11-21T01:08:12;100161.94;;;8.85;100.00
11114;BME280;5610;52.154;9.198;2023-11-21T01:10:57;100173.53;;;8.84;100.00
11114;BME280;5610;52.154;9.198;2023-11-21T01:13:43;100171.13;;;8.79;100.00
11114;BME280;5610;52.154;9.198;2023-11-21T01:16:28;100167.53;;;8.80;100.00
11114;BME280;5610;52.154;9.198;2023-11-21T01:19:16;100177.31;;;8.79;100.00
11114;BME280;5610;52.154;9.198;2023-11-21T01:22:01;100179.97;;;8.79;100.00
11114;BME280;5610;52.154;9.198;2023-11-21T01:24:46;100194.03;;;8.82;100.00
11114;BME280;5610;52.154;9.198;2023-11-21T01:27:31;100181.59;;;8.82;100.00
11114;BME280;5610;52.154;9.198;2023-11-21T01:30:18;100195.63;;;8.84;100.00
11114;BME280;5610;52.154;9.198;2023-11-21T01:33:04;100193.91;;;8.83;100.00
11114;BME280;5610;52.154;9.198;2023-11-21T01:35:49;100198.94;;;8.88;100.00
11114;BME280;5610;52.154;9.198;2023-11-21T01:38:34;100190.09;;;8.87;100.00
11114;BME280;5610;52.154;9.198;2023-11-21T01:41:21;100185.56;;;8.89;100.00
11114;BME280;5610;52.154;9.198;2023-11-21T01:44:06;100195.16;;;8.92;100.00
11114;BME280;5610;52.154;9.198;2023-11-21T01:46:55;100196.09;;;8.91;100.00
11114;BME280;5610;52.154;9.198;2023-11-21T01:49:43;100188.03;;;8.92;100.00
11114;BME280;5610;52.154;9.198;2023-11-21T01:52:28;100190.78;;;8.91;100.00
11114;BME280;5610;52.154;9.198;2023-11-21T01:55:16;100188.78;;;8.94;100.00
11114;BME280;5610;52.154;9.198;2023-11-21T01:58:02;100192.22;;;8.96;100.00
11114;BME280;5610;52.154;9.198;2023-11-21T02:00:48;100184.25;;;8.96;100.00
11114;BME280;5610;52.154;9.198;2023-11-21T02:03:36;100180.63;;;8.97;100.00
11114;BME280;5610;52.154;9.198;2023-11-21T02:06:21;100190.22;;;9.00;100.00
11114;BME280;5610;52.154;9.198;2023-11-21T02:09:10;100186.69;;;8.99;100.00
11114;BME280;5610;52.154;9.198;2023-11-21T02:11:59;100186.69;;;8.99;100.00
11114;BME280;5610;52.154;9.198;2023-11-21T02:14:45;100198.94;;;9.02;100.00
11114;BME280;5610;52.154;9.198;2023-11-21T02:17:32;100205.03;;;9.04;100.00
11114;BME280;5610;52.154;9.198;2023-11-21T02:20:19;100199.72;;;9.04;100.00
11114;BME280;5610;52.154;9.198;2023-11-21T02:23:08;100199.50;;;9.07;100.00
11114;BME280;5610;52.154;9.198;2023-11-21T02:25:53;100205.88;;;9.04;100.00
11114;BME280;5610;52.154;9.198;2023-11-21T02:28:38;100212.91;;;9.05;100.00
11114;BME280;5610;52.154;9.198;2023-11-21T02:31:23;100206.63;;;9.06;100.00
11114;BME280;5610;52.154;9.198;2023-11-21T02:34:08;100213.53;;;9.09;100.00
11114;BME280;5610;52.154;9.198;2023-11-21T02:36:54;100217.25;;;9.06;100.00
11114;BME280;5610;52.154;9.198;2023-11-21T02:39:40;100211.94;;;9.06;100.00
11114;BME280;5610;52.154;9.198;2023-11-21T02:42:25;100216.69;;;9.01;100.00
11114;BME280;5610;52.154;9.198;2023-11-21T02:45:12;100215.19;;;8.97;100.00
11114;BME280;5610;52.154;9.198;2023-11-21T02:48:00;100214.22;;;8.98;100.00
11114;BME280;5610;52.154;9.198;2023-11-21T02:50:46;100212.53;;;8.97;100.00
11114;BME280;5610;52.154;9.198;2023-11-21T02:53:32;100209.88;;;8.97;100.00
11114;BME280;5610;52.154;9.198;2023-11-21T02:56:18;100212.41;;;8.99;100.00
11114;BME280;5610;52.154;9.198;2023-11-21T02:59:04;100210.44;;;9.02;100.00
11114;BME280;5610;52.154;9.198;2023-11-21T03:01:49;100220.78;;;9.07;100.00
11114;BME280;5610;52.154;9.198;2023-11-21T03:04:34;100225.06;;;9.10;100.00
11114;BME280;5610;52.154;9.198;2023-11-21T03:07:20;100223.81;;;9.15;100.00
11114;BME280;5610;52.154;9.198;2023-11-21T03:10:07;100223.72;;;9.17;100.00
11114;BME280;5610;52.154;9.198;2023-11-21T03:12:54;100230.91;;;9.15;100.00
11114;BME280;5610;52.154;9.198;2023-11-21T03:15:39;100229.69;;;9.06;100.00
11114;BME280;5610;52.154;9.198;2023-11-21T03:18:24;100230.28;;;9.11;100.00
11114;BME280;5610;52.154;9.198;2023-11-21T03:21:09;100236.53;;;9.10;100.00
11114;BME280;5610;52.154;9.198;2023-11-21T03:23:54;100238.16;;;9.13;100.00
11114;BME280;5610;52.154;9.198;2023-11-21T03:26:39;100246.03;;;9.14;100.00
11114;BME280;5610;52.154;9.198;2023-11-21T03:29:26;100239.75;;;9.15;100.00
11114;BME280;5610;52.154;9.198;2023-11-21T03:32:11;100245.63;;;9.20;100.00
11114;BME280;5610;52.154;9.198;2023-11-21T03:34:57;100249.06;;;9.22;100.00
11114;BME280;5610;52.154;9.198;2023-11-21T03:37:42;100248.88;;;9.25;100.00
11114;BME280;5610;52.154;9.198;2023-11-21T03:40:27;100248.66;;;9.28;100.00
11114;BME280;5610;52.154;9.198;2023-11-21T03:43:13;100245.84;;;9.31;100.00
11114;BME280;5610;52.154;9.198;2023-11-21T03:45:59;100246.88;;;9.29;100.00
11114;BME280;5610;52.154;9.198;2023-11-21T03:48:44;100252.88;;;9.32;100.00
11114;BME280;5610;52.154;9.198;2023-11-21T03:51:30;100250.09;;;9.34;100.00
11114;BME280;5610;52.154;9.198;2023-11-21T03:54:15;100260.72;;;9.34;100.00
11114;BME280;5610;52.154;9.198;2023-11-21T03:57:00;100263.19;;;9.37;100.00
11114;BME280;5610;52.154;9.198;2023-11-21T03:59:45;100257.88;;;9.37;100.00
11114;BME280;5610;52.154;9.198;2023-11-21T04:02:32;100263.00;;;9.40;100.00
11114;BME280;5610;52.154;9.198;2023-11-21T04:05:17;100265.69;;;9.40;100.00
11114;BME280;5610;52.154;9.198;2023-11-21T04:08:03;100260.72;;;9.34;100.00
11114;BME280;5610;52.154;9.198;2023-11-21T04:10:48;100258.28;;;9.31;100.00
11114;BME280;5610;52.154;9.198;2023-11-21T04:13:33;100260.00;;;9.32;100.00
11114;BME280;5610;52.154;9.198;2023-11-21T04:16:19;100262.66;;;9.32;100.00
11114;BME280;5610;52.154;9.198;2023-11-21T04:19:05;100268.91;;;9.31;100.00
11114;BME280;5610;52.154;9.198;2023-11-21T04:21:51;100271.28;;;9.35;100.00
11114;BME280;5610;52.154;9.198;2023-11-21T04:24:36;100279.16;;;9.37;100.00
11114;BME280;5610;52.154;9.198;2023-11-21T04:27:22;100281.72;;;9.39;100.00
11114;BME280;5610;52.154;9.198;2023-11-21T04:30:07;100286.75;;;9.43;100.00
11114;BME280;5610;52.154;9.198;2023-11-21T04:32:53;100290.94;;;9.47;100.00
11114;BME280;5610;52.154;9.198;2023-11-21T04:35:39;100289.03;;;9.49;100.00
11114;BME280;5610;52.154;9.198;2023-11-21T04:38:25;100290.72;;;9.50;100.00
11114;BME280;5610;52.154;9.198;2023-11-21T04:41:10;100295.03;;;9.53;100.00
11114;BME280;5610;52.154;9.198;2023-11-21T04:43:55;100294.91;;;9.54;100.00
11114;BME280;5610;52.154;9.198;2023-11-21T04:46:40;100299.38;;;9.54;100.00
11114;BME280;5610;52.154;9.198;2023-11-21T04:49:25;100300.03;;;9.57;100.00
11114;BME280;5610;52.154;9.198;2023-11-21T04:52:11;100307.84;;;9.60;100.00
11114;BME280;5610;52.154;9.198;2023-11-21T04:54:56;100311.13;;;9.64;100.00
11114;BME280;5610;52.154;9.198;2023-11-21T04:57:42;100315.63;;;9.63;100.00
11114;BME280;5610;52.154;9.198;2023-11-21T05:00:27;100314.66;;;9.64;100.00
11114;BME280;5610;52.154;9.198;2023-11-21T05:03:12;100306.69;;;9.64;100.00
11114;BME280;5610;52.154;9.198;2023-11-21T05:05:57;100320.94;;;9.63;100.00
11114;BME280;5610;52.154;9.198;2023-11-21T05:08:45;100317.78;;;9.57;100.00
11114;BME280;5610;52.154;9.198;2023-11-21T05:11:31;100320.66;;;9.54;100.00
11114;BME280;5610;52.154;9.198;2023-11-21T05:14:16;100318.00;;;9.54;100.00
11114;BME280;5610;52.154;9.198;2023-11-21T05:17:03;100316.84;;;9.58;100.00
11114;BME280;5610;52.154;9.198;2023-11-21T05:19:49;100321.03;;;9.62;100.00
11114;BME280;5610;52.154;9.198;2023-11-21T05:22:34;100323.59;;;9.63;100.00
11114;BME280;5610;52.154;9.198;2023-11-21T05:25:21;100332.53;;;9.62;100.00
11114;BME280;5610;52.154;9.198;2023-11-21T05:28:06;100329.69;;;9.66;100.00
11114;BME280;5610;52.154;9.198;2023-11-21T05:30:52;100332.25;;;9.67;100.00
11114;BME280;5610;52.154;9.198;2023-11-21T05:33:37;100325.22;;;9.66;100.00
11114;BME280;5610;52.154;9.198;2023-11-21T05:36:22;100329.22;;;9.59;100.00
11114;BME280;5610;52.154;9.198;2023-11-21T05:39:08;100337.00;;;9.62;100.00
11114;BME280;5610;52.154;9.198;2023-11-21T05:41:56;100331.41;;;9.52;100.00
11114;BME280;5610;52.154;9.198;2023-11-21T05:44:43;100339.28;;;9.54;100.00
11114;BME280;5610;52.154;9.198;2023-11-21T05:47:29;100349.06;;;9.53;100.00
11114;BME280;5610;52.154;9.198;2023-11-21T05:50:15;100339.19;;;9.55;100.00
11114;BME280;5610;52.154;9.198;2023-11-21T05:53:01;100348.69;;;9.59;100.00
11114;BME280;5610;52.154;9.198;2023-11-21T05:55:46;100349.34;;;9.63;100.00
11114;BME280;5610;52.154;9.198;2023-11-21T05:58:32;100358.00;;;9.67;100.00
11114;BME280;5610;52.154;9.198;2023-11-21T06:01:18;100356.09;;;9.69;100.00
11114;BME280;5610;52.154;9.198;2023-11-21T06:04:03;100356.00;;;9.70;100.00
11114;BME280;5610;52.154;9.198;2023-11-21T06:06:49;100357.69;;;9.71;100.00
11114;BME280;5610;52.154;9.198;2023-11-21T06:09:34;100360.34;;;9.71;100.00
11114;BME280;5610;52.154;9.198;2023-11-21T06:12:19;100362.94;;;9.73;100.00
11114;BME280;5610;52.154;9.198;2023-11-21T06:15:07;100368.34;;;9.71;100.00
11114;BME280;5610;52.154;9.198;2023-11-21T06:17:53;100374.34;;;9.75;100.00
11114;BME280;5610;52.154;9.198;2023-11-21T06:20:38;100377.94;;;9.74;100.00
11114;BME280;5610;52.154;9.198;2023-11-21T06:23:23;100378.13;;;9.71;100.00
11114;BME280;5610;52.154;9.198;2023-11-21T06:26:08;100386.09;;;9.71;100.00
11114;BME280;5610;52.154;9.198;2023-11-21T06:28:54;100387.91;;;9.70;100.00
11114;BME280;5610;52.154;9.198;2023-11-21T06:31:42;100397.59;;;9.71;100.00
11114;BME280;5610;52.154;9.198;2023-11-21T06:34:27;100393.44;;;9.67;100.00
11114;BME280;5610;52.154;9.198;2023-11-21T06:37:12;100398.84;;;9.66;100.00
11114;BME280;5610;52.154;9.198;2023-11-21T06:39:58;100411.97;;;9.69;100.00
11114;BME280;5610;52.154;9.198;2023-11-21T06:42:43;100411.00;;;9.70;100.00
11114;BME280;5610;52.154;9.198;2023-11-21T06:45:30;100414.72;;;9.67;100.00
11114;BME280;5610;52.154;9.198;2023-11-21T06:48:16;100421.66;;;9.70;100.00
11114;BME280;5610;52.154;9.198;2023-11-21T06:51:02;100426.13;;;9.69;100.00
11114;BME280;5610;52.154;9.198;2023-11-21T06:53:47;100433.91;;;9.72;100.00
11114;BME280;5610;52.154;9.198;2023-11-21T06:56:32;100431.34;;;9.71;100.00
11114;BME280;5610;52.154;9.198;2023-11-21T06:59:17;100437.44;;;9.73;100.00
11114;BME280;5610;52.154;9.198;2023-11-21T07:02:03;100432.13;;;9.73;100.00
11114;BME280;5610;52.154;9.198;2023-11-21T07:04:51;100439.91;;;9.76;100.00
11114;BME280;5610;52.154;9.198;2023-11-21T07:07:37;100441.59;;;9.77;100.00
11114;BME280;5610;52.154;9.198;2023-11-21T07:10:22;100445.00;;;9.79;100.00
11114;BME280;5610;52.154;9.198;2023-11-21T07:13:08;100446.75;;;9.80;100.00
11114;BME280;5610;52.154;9.198;2023-11-21T07:15:56;100455.38;;;9.83;100.00
11114;BME280;5610;52.154;9.198;2023-11-21T07:18:41;100452.63;;;9.85;100.00
11114;BME280;5610;52.154;9.198;2023-11-21T07:21:28;100460.44;;;9.88;100.00
11114;BME280;5610;52.154;9.198;2023-11-21T07:24:14;100462.16;;;9.89;100.00
11114;BME280;5610;52.154;9.198;2023-11-21T07:26:59;100466.25;;;9.95;100.00
11114;BME280;5610;52.154;9.198;2023-11-21T07:29:44;100462.63;;;9.96;100.00
11114;BME280;5610;52.154;9.198;2023-11-21T07:32:30;100475.84;;;9.97;100.00
11114;BME280;5610;52.154;9.198;2023-11-21T07:35:16;100482.69;;;10.01;100.00
11114;BME280;5610;52.154;9.198;2023-11-21T07:38:02;100488.09;;;10.00;100.00
11114;BME280;5610;52.154;9.198;2023-11-21T07:40:48;100485.16;;;10.04;100.00
11114;BME280;5610;52.154;9.198;2023-11-21T07:43:34;100491.31;;;10.05;100.00
11114;BME280;5610;52.154;9.198;2023-11-21T07:46:19;100492.00;;;10.08;100.00
11114;BME280;5610;52.154;9.198;2023-11-21T07:49:06;100503.50;;;10.09;100.00
11114;BME280;5610;52.154;9.198;2023-11-21T07:51:51;100498.09;;;10.10;100.00
11114;BME280;5610;52.154;9.198;2023-11-21T07:54:38;100497.72;;;10.16;100.00
11114;BME280;5610;52.154;9.198;2023-11-21T07:57:23;100504.53;;;10.21;100.00
11114;BME280;5610;52.154;9.198;2023-11-21T08:00:09;100511.56;;;10.22;100.00
11114;BME280;5610;52.154;9.198;2023-11-21T08:02:58;100520.38;;;10.24;100.00
11114;BME280;5610;52.154;9.198;2023-11-21T08:05:44;100523.78;;;10.26;100.00
11114;BME280;5610;52.154;9.198;2023-11-21T08:08:29;100537.09;;;10.26;100.00
11114;BME280;5610;52.154;9.198;2023-11-21T08:11:16;100530.94;;;10.25;100.00
11114;BME280;5610;52.154;9.198;2023-11-21T08:14:01;100533.31;;;10.30;100.00
11114;BME280;5610;52.154;9.198;2023-11-21T08:16:46;100538.34;;;10.34;100.00
11114;BME280;5610;52.154;9.198;2023-11-21T08:19:31;100542.06;;;10.32;100.00
11114;BME280;5610;52.154;9.198;2023-11-21T08:22:16;100539.28;;;10.33;100.00
11114;BME280;5610;52.154;9.198;2023-11-21T08:25:02;100549.00;;;10.34;100.00
11114;BME280;5610;52.154;9.198;2023-11-21T08:27:49;100549.78;;;10.36;100.00
11114;BME280;5610;52.154;9.198;2023-11-21T08:30:35;100546.91;;;10.39;100.00
11114;BME280;5610;52.154;9.198;2023-11-21T08:33:20;100555.56;;;10.43;100.00
11114;BME280;5610;52.154;9.198;2023-11-21T08:36:07;100559.00;;;10.45;100.00
11114;BME280;5610;52.154;9.198;2023-11-21T08:38:52;100558.13;;;10.44;100.00
11114;BME280;5610;52.154;9.198;2023-11-21T08:41:37;100560.91;;;10.43;100.00
11114;BME280;5610;52.154;9.198;2023-11-21T08:44:23;100558.25;;;10.43;100.00
11114;BME280;5610;52.154;9.198;2023-11-21T08:47:09;100575.06;;;10.43;100.00
11114;BME280;5610;52.154;9.198;2023-11-21T08:49:54;100574.03;;;10.46;100.00
11114;BME280;5610;52.154;9.198;2023-11-21T08:52:39;100588.28;;;10.45;100.00
11114;BME280;5610;52.154;9.198;2023-11-21T08:55:26;100587.34;;;10.46;100.00
11114;BME280;5610;52.154;9.198;2023-11-21T08:58:11;100596.19;;;10.47;100.00
11114;BME280;5610;52.154;9.198;2023-11-21T09:00:58;100600.66;;;10.46;100.00
11114;BME280;5610;52.154;9.198;2023-11-21T09:03:43;100608.66;;;10.46;100.00
11114;BME280;5610;52.154;9.198;2023-11-21T09:06:28;100613.13;;;10.45;100.00
11114;BME280;5610;52.154;9.198;2023-11-21T09:09:13;100612.38;;;10.43;100.00
11114;BME280;5610;52.154;9.198;2023-11-21T09:11:59;100624.84;;;10.43;100.00
11114;BME280;5610;52.154;9.198;2023-11-21T09:14:45;100634.69;;;10.41;100.00
11114;BME280;5610;52.154;9.198;2023-11-21T09:17:32;100637.38;;;10.41;100.00
11114;BME280;5610;52.154;9.198;2023-11-21T09:20:19;100640.88;;;10.41;100.00
11114;BME280;5610;52.154;9.198;2023-11-21T09:23:06;100641.00;;;10.40;100.00
11114;BME280;5610;52.154;9.198;2023-11-21T09:25:52;100654.19;;;10.41;100.00
11114;BME280;5610;52.154;9.198;2023-11-21T09:28:40;100652.31;;;10.43;100.00
11114;BME280;5610;52.154;9.198;2023-11-21T09:31:30;100662.69;;;10.48;100.00
11114;BME280;5610;52.154;9.198;2023-11-21T09:34:19;100668.50;;;10.55;100.00
11114;BME280;5610;52.154;9.198;2023-11-21T09:37:04;100667.47;;;10.57;100.00
11114;BME280;5610;52.154;9.198;2023-11-21T09:39:50;100681.34;;;10.62;100.00
11114;BME280;5610;52.154;9.198;2023-11-21T09:42:38;100691.84;;;10.65;100.00
11114;BME280;5610;52.154;9.198;2023-11-21T09:45:26;100687.38;;;10.66;100.00
11114;BME280;5610;52.154;9.198;2023-11-21T09:48:13;100687.47;;;10.64;100.00
11114;BME280;5610;52.154;9.198;2023-11-21T09:50:59;100681.44;;;10.61;100.00
11114;BME280;5610;52.154;9.198;2023-11-21T09:53:50;100694.47;;;10.51;100.00
11114;BME280;5610;52.154;9.198;2023-11-21T09:56:37;100698.09;;;10.50;100.00
11114;BME280;5610;52.154;9.198;2023-11-21T09:59:22;100710.75;;;10.47;100.00
11114;BME280;5610;52.154;9.198;2023-11-21T10:02:08;100703.78;;;10.44;100.00
11114;BME280;5610;52.154;9.198;2023-11-21T10:04:56;100709.13;;;10.44;100.00
11114;BME280;5610;52.154;9.198;2023-11-21T10:07:44;100717.00;;;10.45;100.00
11114;BME280;5610;52.154;9.198;2023-11-21T10:10:32;100720.63;;;10.44;100.00
11114;BME280;5610;52.154;9.198;2023-11-21T10:13:18;100726.91;;;10.43;100.00
11114;BME280;5610;52.154;9.198;2023-11-21T10:16:04;100729.84;;;10.39;100.00
11114;BME280;5610;52.154;9.198;2023-11-21T10:18:52;100738.78;;;10.38;100.00
11114;BME280;5610;52.154;9.198;2023-11-21T10:21:39;100741.72;;;10.33;100.00
11114;BME280;5610;52.154;9.198;2023-11-21T10:24:26;100729.44;;;10.31;100.00
11114;BME280;5610;52.154;9.198;2023-11-21T10:27:11;100733.97;;;10.29;100.00
11114;BME280;5610;52.154;9.198;2023-11-21T10:29:56;100734.88;;;10.29;100.00
11114;BME280;5610;52.154;9.198;2023-11-21T10:32:42;100746.69;;;10.39;100.00
11114;BME280;5610;52.154;9.198;2023-11-21T10:35:38;100755.94;;;10.48;100.00
11114;BME280;5610;52.154;9.198;2023-11-21T10:38:24;100755.75;;;10.51;100.00
11114;BME280;5610;52.154;9.198;2023-11-21T10:41:12;100754.97;;;10.49;100.00
11114;BME280;5610;52.154;9.198;2023-11-21T10:43:59;100751.75;;;10.44;100.00
11114;BME280;5610;52.154;9.198;2023-11-21T10:46:44;100755.44;;;10.41;100.00
11114;BME280;5610;52.154;9.198;2023-11-21T10:49:36;100768.78;;;10.26;100.00
11114;BME280;5610;52.154;9.198;2023-11-21T10:52:26;100785.72;;;10.25;100.00
11114;BME280;5610;52.154;9.198;2023-11-21T10:55:18;100776.03;;;10.24;100.00
11114;BME280;5610;52.154;9.198;2023-11-21T10:58:06;100782.34;;;10.21;100.00
11114;BME280;5610;52.154;9.198;2023-11-21T11:00:54;100792.22;;;10.19;100.00
11114;BME280;5610;52.154;9.198;2023-11-21T11:03:41;100788.44;;;10.07;100.00
11114;BME280;5610;52.154;9.198;2023-11-21T11:06:28;100790.03;;;9.96;100.00
11114;BME280;5610;52.154;9.198;2023-11-21T11:09:13;100798.09;;;9.94;100.00
11114;BME280;5610;52.154;9.198;2023-11-21T11:12:01;100794.56;;;9.94;100.00
11114;BME280;5610;52.154;9.198;2023-11-21T11:14:49;100799.81;;;9.95;100.00
11114;BME280;5610;52.154;9.198;2023-11-21T11:17:37;100803.44;;;9.94;100.00
11114;BME280;5610;52.154;9.198;2023-11-21T11:20:29;100808.75;;;9.94;100.00
11114;BME280;5610;52.154;9.198;2023-11-21T11:23:32;100808.75;;;9.94;100.00
11114;BME280;5610;52.154;9.198;2023-11-21T11:26:30;100812.84;;;10.00;100.00
11114;BME280;5610;52.154;9.198;2023-11-21T11:29:23;100818.09;;;10.01;100.00
11114;BME280;5610;52.154;9.198;2023-11-21T11:32:25;100833.91;;;10.04;100.00
11114;BME280;5610;52.154;9.198;2023-11-21T11:35:21;100825.66;;;10.09;100.00
11114;BME280;5610;52.154;9.198;2023-11-21T11:38:09;100832.59;;;10.11;100.00
11114;BME280;5610;52.154;9.198;2023-11-21T11:40:55;100834.22;;;10.14;100.00
11114;BME280;5610;52.154;9.198;2023-11-21T11:43:40;100835.44;;;10.08;100.00
11114;BME280;5610;52.154;9.198;2023-11-21T11:46:41;100839.13;;;10.06;100.00
11114;BME280;5610;52.154;9.198;2023-11-21T11:49:28;100845.25;;;10.08;100.00
11114;BME280;5610;52.154;9.198;2023-11-21T11:52:33;100854.44;;;10.02;100.00
11114;BME280;5610;52.154;9.198;2023-11-21T11:55:20;100851.44;;;10.08;100.00
11114;BME280;5610;52.154;9.198;2023-11-21T11:58:06;100850.28;;;10.12;100.00
11114;BME280;5610;52.154;9.198;2023-11-21T12:00:52;100853.91;;;10.11;100.00
11114;BME280;5610;52.154;9.198;2023-11-21T12:03:39;100857.66;;;10.07;100.00
11114;BME280;5610;52.154;9.198;2023-11-21T12:06:33;100864.81;;;10.07;100.00
11114;BME280;5610;52.154;9.198;2023-11-21T12:09:18;100857.44;;;9.96;100.00
11114;BME280;5610;52.154;9.198;2023-11-21T12:12:05;100857.53;;;9.95;100.00
11114;BME280;5610;52.154;9.198;2023-11-21T12:14:50;100862.13;;;9.91;100.00
11114;BME280;5610;52.154;9.198;2023-11-21T12:17:36;100875.34;;;9.93;100.00
11114;BME280;5610;52.154;9.198;2023-11-21T12:20:21;100876.81;;;9.98;100.00
11114;BME280;5610;52.154;9.198;2023-11-21T12:23:08;100867.91;;;9.99;100.00
11114;BME280;5610;52.154;9.198;2023-11-21T12:25:54;100883.38;;;10.08;100.00
11114;BME280;5610;52.154;9.198;2023-11-21T12:28:40;100891.69;;;10.18;100.00
11114;BME280;5610;52.154;9.198;2023-11-21T12:31:25;100893.84;;;10.11;100.00
11114;BME280;5610;52.154;9.198;2023-11-21T12:34:10;100888.53;;;10.11;100.00
11114;BME280;5610;52.154;9.198;2023-11-21T12:36:55;100898.97;;;10.14;100.00
11114;BME280;5610;52.154;9.198;2023-11-21T12:39:43;100894.47;;;10.16;100.00
11114;BME280;5610;52.154;9.198;2023-11-21T12:42:28;100893.31;;;10.21;100.00
11114;BME280;5610;52.154;9.198;2023-11-21T12:45:19;100901.09;;;10.25;100.00
11114;BME280;5610;52.154;9.198;2023-11-21T12:48:05;100904.63;;;10.26;100.00
11114;BME280;5610;52.154;9.198;2023-11-21T12:50:52;100900.84;;;10.30;100.00
11114;BME280;5610;52.154;9.198;2023-11-21T12:53:38;100894.28;;;10.35;100.00
11114;BME280;5610;52.154;9.198;2023-11-21T12:56:26;100904.59;;;10.41;100.00
11114;BME280;5610;52.154;9.198;2023-11-21T12:59:12;100906.81;;;10.49;100.00
11114;BME280;5610;52.154;9.198;2023-11-21T13:01:57;100905.53;;;10.56;100.00
11114;BME280;5610;52.154;9.198;2023-11-21T13:04:51;100912.06;;;10.66;100.00
11114;BME280;5610;52.154;9.198;2023-11-21T13:07:41;100913.53;;;10.72;100.00
11114;BME280;5610;52.154;9.198;2023-11-21T13:10:31;100917.63;;;10.78;100.00
11114;BME280;5610;52.154;9.198;2023-11-21T13:13:20;100918.22;;;10.83;100.00
11114;BME280;5610;52.154;9.198;2023-11-21T13:16:06;100929.22;;;10.92;100.00
11114;BME280;5610;52.154;9.198;2023-11-21T13:18:52;100932.66;;;10.94;100.00
11114;BME280;5610;52.154;9.198;2023-11-21T13:21:37;100940.97;;;11.04;100.00
11114;BME280;5610;52.154;9.198;2023-11-21T13:24:23;100941.00;;;11.18;100.00
11114;BME280;5610;52.154;9.198;2023-11-21T13:27:09;100940.09;;;11.34;100.00
11114;BME280;5610;52.154;9.198;2023-11-21T13:29:56;100950.84;;;11.32;100.00
11114;BME280;5610;52.154;9.198;2023-11-21T13:32:43;100960.41;;;11.36;100.00
11114;BME280;5610;52.154;9.198;2023-11-21T13:35:30;100959.34;;;11.39;100.00
11114;BME280;5610;52.154;9.198;2023-11-21T13:38:18;100964.03;;;11.35;100.00
11114;BME280;5610;52.154;9.198;2023-11-21T13:41:07;100979.03;;;11.22;100.00
11114;BME280;5610;52.154;9.198;2023-11-21T13:43:54;100985.63;;;11.00;100.00
11114;BME280;5610;52.154;9.198;2023-11-21T13:46:48;100992.75;;;10.84;100.00
11114;BME280;5610;52.154;9.198;2023-11-21T13:49:34;100996.81;;;10.76;100.00
11114;BME280;5610;52.154;9.198;2023-11-21T13:52:24;100999.75;;;10.71;100.00
11114;BME280;5610;52.154;9.198;2023-11-21T13:55:11;100991.06;;;10.67;100.00
11114;BME280;5610;52.154;9.198;2023-11-21T13:57:59;100992.97;;;10.65;100.00
11114;BME280;5610;52.154;9.198;2023-11-21T14:00:45;101001.13;;;10.62;100.00
11114;BME280;5610;52.154;9.198;2023-11-21T14:03:41;100999.59;;;10.58;100.00
11114;BME280;5610;52.154;9.198;2023-11-21T14:06:35;100997.25;;;10.52;100.00
11114;BME280;5610;52.154;9.198;2023-11-21T14:09:31;101007.41;;;10.45;100.00
11114;BME280;5610;52.154;9.198;2023-11-21T14:12:19;101012.97;;;10.41;100.00
11114;BME280;5610;52.154;9.198;2023-11-21T14:15:06;101011.69;;;10.32;100.00
11114;BME280;5610;52.154;9.198;2023-11-21T14:17:53;101019.31;;;10.23;100.00
11114;BME280;5610;52.154;9.198;2023-11-21T14:20:40;101024.13;;;10.14;100.00
11114;BME280;5610;52.154;9.198;2023-11-21T14:23:26;101035.06;;;10.10;100.00
11114;BME280;5610;52.154;9.198;2023-11-21T14:26:12;101036.47;;;10.00;100.00
11114;BME280;5610;52.154;9.198;2023-11-21T14:28:58;101038.84;;;9.88;100.00
11114;BME280;5610;52.154;9.198;2023-11-21T14:31:43;101049.94;;;9.79;100.00
11114;BME280;5610;52.154;9.198;2023-11-21T14:34:28;101041.47;;;9.73;100.00
11114;BME280;5610;52.154;9.198;2023-11-21T14:37:14;101055.28;;;9.62;100.00